Time;durP1;ratioP1;P1;durP2;ratioP2;P2;SDS_P1;SDS_P2;PMS_P1;PMS_P2;Temp;Humidity;BMP_temperature;BMP_pressure;BME280_temperature;BME280_humidity;BME280_pressure;Samples;Min_cycle;Max_cycle;Signal;HPM_P1;HPM_P2
2023/06/23 00:00:25;;;;;;;5.60;5.00;;;22.40;99.90;;;;;;6263709;22;20167;-66
2023/06/23 00:02:51;;;;;;;4.53;4.10;;;22.40;99.90;;;;;;6266384;22;20154;-67
2023/06/23 00:05:16;;;;;;;4.60;4.20;;;22.40;99.90;;;;;;6264873;22;20856;-66
2023/06/23 00:07:42;;;;;;;3.70;3.30;;;22.50;99.90;;;;;;6265623;22;20392;-66
2023/06/23 00:10:10;;;;;;;4.83;4.00;;;22.40;99.90;;;;;;6264904;22;20147;-66
2023/06/23 00:12:41;;;;;;;4.63;3.70;;;22.40;99.90;;;;;;6239599;22;20142;-66
2023/06/23 00:15:11;;;;;;;6.03;3.20;;;22.50;99.90;;;;;;6264718;22;20354;-66
2023/06/23 00:17:38;;;;;;;5.00;3.40;;;22.50;99.90;;;;;;6264270;22;20432;-66
2023/06/23 00:20:10;;;;;;;5.03;4.20;;;22.30;99.90;;;;;;6261810;22;20377;-66
2023/06/23 00:22:36;;;;;;;4.10;3.43;;;22.20;99.90;;;;;;6265164;22;20691;-66
2023/06/23 00:25:03;;;;;;;3.47;3.13;;;22.30;99.90;;;;;;6262956;22;20369;-66
2023/06/23 00:27:28;;;;;;;4.40;3.90;;;22.30;99.90;;;;;;6265694;22;20460;-66
2023/06/23 00:29:54;;;;;;;4.17;3.63;;;22.50;99.90;;;;;;6262584;22;20758;-66
2023/06/23 00:32:20;;;;;;;3.97;3.50;;;22.50;99.90;;;;;;6263626;22;20181;-66
2023/06/23 00:34:45;;;;;;;3.83;3.40;;;22.60;99.90;;;;;;6266228;22;20150;-66
2023/06/23 00:37:11;;;;;;;5.77;3.57;;;22.60;99.90;;;;;;6264449;22;20185;-66
2023/06/23 00:39:37;;;;;;;4.20;3.60;;;22.60;99.90;;;;;;6265877;22;20249;-66
2023/06/23 00:42:08;;;;;;;5.20;4.70;;;22.50;99.90;;;;;;6264272;22;20150;-66
2023/06/23 00:44:34;;;;;;;7.17;4.93;;;22.10;99.90;;;;;;6266213;22;20358;-66
2023/06/23 00:47:02;;;;;;;5.57;4.90;;;22.00;99.90;;;;;;6264653;22;20377;-66
2023/06/23 00:49:27;;;;;;;5.37;4.80;;;21.90;99.90;;;;;;6264889;22;20170;-66
2023/06/23 00:51:53;;;;;;;5.93;4.20;;;21.70;99.90;;;;;;6264727;22;20453;-67
2023/06/23 00:54:20;;;;;;;5.63;4.53;;;21.40;99.90;;;;;;6264043;22;20150;-66
2023/06/23 00:56:47;;;;;;;5.90;5.23;;;21.20;99.90;;;;;;6266801;22;20572;-66
2023/06/23 00:59:13;;;;;;;6.37;4.67;;;21.20;99.90;;;;;;6264272;22;20746;-67
2023/06/23 01:01:38;;;;;;;5.50;4.77;;;21.10;99.90;;;;;;6263674;22;20922;-67
2023/06/23 01:04:04;;;;;;;5.97;4.53;;;21.20;99.90;;;;;;6264735;22;20155;-66
2023/06/23 01:06:42;;;;;;;8.10;5.30;;;21.10;99.90;;;;;;6265934;22;20205;-66
2023/06/23 01:09:27;;;;;;;5.50;4.70;;;20.90;99.90;;;;;;6261311;22;20174;-66
2023/06/23 01:12:12;;;;;;;4.90;4.07;;;21.00;99.90;;;;;;6263909;22;20369;-66
2023/06/23 01:15:06;;;;;;;5.33;4.70;;;20.90;99.90;;;;;;6265413;22;20703;-66
2023/06/23 01:17:44;;;;;;;6.03;5.43;;;20.90;99.90;;;;;;6265088;22;20412;-66
2023/06/23 01:20:33;;;;;;;6.20;4.73;;;20.90;99.90;;;;;;6265834;22;20365;-67
2023/06/23 01:23:19;;;;;;;5.40;4.80;;;20.90;99.90;;;;;;6263467;22;20376;-66
2023/06/23 01:26:03;;;;;;;5.80;5.20;;;20.80;99.90;;;;;;6264948;22;20428;-66
2023/06/23 01:28:39;;;;;;;6.20;5.57;;;20.70;99.90;;;;;;6263545;22;20408;-66
2023/06/23 01:31:07;;;;;;;6.87;5.13;;;20.60;99.90;;;;;;6266278;22;20454;-66
2023/06/23 01:33:39;;;;;;;6.03;5.07;;;20.80;99.90;;;;;;6264714;22;20380;-66
2023/06/23 01:36:09;;;;;;;6.40;5.70;;;20.80;99.90;;;;;;6264369;22;20401;-66
2023/06/23 01:38:40;;;;;;;6.00;5.17;;;20.80;99.90;;;;;;6266021;22;20488;-66
2023/06/23 01:41:16;;;;;;;10.37;5.67;;;20.80;99.90;;;;;;6264771;22;20353;-66
2023/06/23 01:43:45;;;;;;;6.63;5.60;;;20.80;99.90;;;;;;6265717;22;20376;-66
2023/06/23 01:46:18;;;;;;;8.47;5.90;;;20.80;99.90;;;;;;6265320;22;20435;-66
2023/06/23 01:48:48;;;;;;;7.17;6.37;;;20.60;99.90;;;;;;6266224;22;20500;-66
2023/06/23 01:51:17;;;;;;;8.67;6.27;;;20.60;99.90;;;;;;6265330;22;20377;-66
2023/06/23 01:53:45;;;;;;;7.60;6.13;;;20.60;99.90;;;;;;6265575;22;20403;-66
2023/06/23 01:56:13;;;;;;;11.80;6.53;;;20.70;99.90;;;;;;6265089;22;20425;-66
2023/06/23 01:58:39;;;;;;;8.67;6.90;;;20.70;99.90;;;;;;6265452;22;20397;-66
2023/06/23 02:01:07;;;;;;;9.00;6.23;;;20.70;99.90;;;;;;6265573;22;20389;-65
2023/06/23 02:03:33;;;;;;;8.40;6.70;;;20.70;99.90;;;;;;6265535;22;20434;-66
2023/06/23 02:06:01;;;;;;;7.80;6.03;;;20.60;99.90;;;;;;6265946;22;20378;-65
2023/06/23 02:08:28;;;;;;;8.30;6.90;;;20.60;99.90;;;;;;6265540;22;20416;-65
2023/06/23 02:10:55;;;;;;;8.57;6.60;;;20.60;99.90;;;;;;6266963;22;20373;-65
2023/06/23 02:13:23;;;;;;;8.77;6.30;;;20.70;99.90;;;;;;6267154;22;20385;-66
2023/06/23 02:15:50;;;;;;;9.47;6.93;;;20.70;99.90;;;;;;6265692;22;20482;-66
2023/06/23 02:18:17;;;;;;;8.50;7.20;;;20.70;99.90;;;;;;6266543;22;20397;-66
2023/06/23 02:20:44;;;;;;;8.73;7.57;;;20.50;99.90;;;;;;6266834;22;20435;-66
2023/06/23 02:23:10;;;;;;;10.30;7.37;;;20.60;99.90;;;;;;6267611;22;20369;-66
2023/06/23 02:25:39;;;;;;;13.63;6.47;;;20.60;99.90;;;;;;6266301;22;20468;-66
2023/06/23 02:28:05;;;;;;;7.60;6.57;;;20.50;99.90;;;;;;6268092;22;20400;-66
2023/06/23 02:30:32;;;;;;;7.83;7.00;;;20.50;99.90;;;;;;6266943;22;20444;-66
2023/06/23 02:32:57;;;;;;;7.10;6.30;;;20.50;99.90;;;;;;6266264;22;20379;-66
2023/06/23 02:35:23;;;;;;;7.93;7.07;;;20.40;99.90;;;;;;6266447;22;20377;-66
2023/06/23 02:37:54;;;;;;;7.77;6.90;;;20.40;99.90;;;;;;6239632;22;20177;-65
2023/06/23 02:40:23;;;;;;;8.60;7.23;;;20.50;99.90;;;;;;6266582;22;20692;-66
2023/06/23 02:43:07;;;;;;;8.87;7.93;;;20.40;99.90;;;;;;6266879;22;21093;-66
2023/06/23 02:45:38;;;;;;;7.73;6.83;;;20.50;99.90;;;;;;6266838;22;20411;-66
2023/06/23 02:48:09;;;;;;;9.00;7.07;;;20.40;99.90;;;;;;6265353;22;20667;-67
2023/06/23 02:50:36;;;;;;;9.27;7.23;;;20.40;99.90;;;;;;6267156;22;20484;-66
2023/06/23 02:53:08;;;;;;;9.20;7.70;;;20.40;99.90;;;;;;6265017;22;20369;-66
2023/06/23 02:55:40;;;;;;;11.73;8.13;;;20.50;99.90;;;;;;6266975;22;20401;-66
2023/06/23 02:58:09;;;;;;;8.80;7.90;;;20.50;99.90;;;;;;6265318;22;20393;-66
2023/06/23 03:00:37;;;;;;;9.17;8.27;;;20.40;99.90;;;;;;6266565;22;20977;-66
2023/06/23 03:03:07;;;;;;;9.50;8.50;;;20.40;99.90;;;;;;6264850;22;20923;-66
2023/06/23 03:05:33;;;;;;;15.20;8.67;;;20.40;99.90;;;;;;6266745;22;20361;-67
2023/06/23 03:08:00;;;;;;;9.60;8.60;;;20.50;99.90;;;;;;6265889;22;21025;-66
2023/06/23 03:10:27;;;;;;;10.17;9.00;;;20.40;99.90;;;;;;6265856;22;20912;-66
2023/06/23 03:12:53;;;;;;;10.40;9.40;;;20.40;99.90;;;;;;6264929;22;20370;-66
2023/06/23 03:15:18;;;;;;;12.97;10.00;;;20.50;99.90;;;;;;6264856;22;20466;-66
2023/06/23 03:17:46;;;;;;;13.00;9.67;;;20.60;99.90;;;;;;6266092;22;20147;-66
2023/06/23 03:20:24;;;;;;;11.23;10.13;;;20.60;99.90;;;;;;6265190;22;20151;-67
2023/06/23 03:22:55;;;;;;;12.13;10.80;;;20.60;99.90;;;;;;6266018;22;20365;-67
2023/06/23 03:25:26;;;;;;;15.73;12.37;;;20.50;99.90;;;;;;6265408;22;20404;-67
2023/06/23 03:27:56;;;;;;;15.87;12.73;;;20.50;99.90;;;;;;6265893;22;20385;-66
2023/06/23 03:30:42;;;;;;;17.00;12.83;;;20.50;99.90;;;;;;6266611;22;20372;-67
2023/06/23 03:33:17;;;;;;;16.33;14.20;;;20.60;99.90;;;;;;6265591;22;20365;-66
2023/06/23 03:35:44;;;;;;;15.53;13.93;;;20.50;99.90;;;;;;6265788;22;20405;-66
2023/06/23 03:38:18;;;;;;;19.07;16.13;;;20.60;99.90;;;;;;6265814;22;20963;-66
2023/06/23 03:41:03;;;;;;;17.50;15.37;;;20.50;99.90;;;;;;6265261;22;20365;-66
2023/06/23 03:43:37;;;;;;;17.07;15.23;;;20.60;99.90;;;;;;6265997;22;20373;-66
2023/06/23 03:46:13;;;;;;;18.50;15.90;;;20.60;99.90;;;;;;6265016;22;20435;-66
2023/06/23 03:48:40;;;;;;;19.33;17.33;;;20.60;99.90;;;;;;6235720;22;20436;-66
2023/06/23 03:51:10;;;;;;;19.10;17.00;;;20.60;99.90;;;;;;6262709;22;20409;-66
2023/06/23 03:53:38;;;;;;;21.73;19.57;;;20.70;99.90;;;;;;6236310;22;20417;-66
2023/06/23 03:56:05;;;;;;;21.53;19.43;;;20.50;99.90;;;;;;6265464;22;20412;-66
2023/06/23 03:58:32;;;;;;;22.67;20.33;;;20.70;99.90;;;;;;6263435;22;20405;-66
2023/06/23 04:00:59;;;;;;;20.13;18.03;;;20.60;99.90;;;;;;6266272;22;20381;-65
2023/06/23 04:03:26;;;;;;;22.30;20.10;;;20.70;99.90;;;;;;6264389;22;20373;-66
2023/06/23 04:05:53;;;;;;;23.10;20.70;;;20.60;99.90;;;;;;6266199;22;20488;-66
2023/06/23 04:08:21;;;;;;;26.03;23.30;;;20.60;99.90;;;;;;6266773;22;20408;-66
2023/06/23 04:10:47;;;;;;;25.30;22.60;;;20.60;99.90;;;;;;6265487;22;20392;-68
2023/06/23 04:13:14;;;;;;;25.20;22.70;;;20.50;99.90;;;;;;6265283;22;20478;-68
2023/06/23 04:15:41;;;;;;;26.77;24.07;;;20.60;99.90;;;;;;6265722;22;20444;-67
2023/06/23 04:18:10;;;;;;;27.93;25.07;;;20.60;99.90;;;;;;6263234;22;20733;-68
2023/06/23 04:20:38;;;;;;;27.70;24.70;;;20.60;99.90;;;;;;6263537;22;20481;-68
2023/06/23 04:23:05;;;;;;;28.67;25.63;;;20.70;99.90;;;;;;6264249;22;20369;-67
2023/06/23 04:25:31;;;;;;;29.20;24.37;;;20.70;99.90;;;;;;6265151;22;20369;-67
2023/06/23 04:28:00;;;;;;;27.50;24.70;;;20.60;99.90;;;;;;6265125;22;20455;-67
2023/06/23 04:30:29;;;;;;;30.03;26.60;;;20.60;99.90;;;;;;6263583;22;20147;-67
2023/06/23 04:32:55;;;;;;;32.40;28.97;;;20.60;99.90;;;;;;6263861;22;20381;-67
2023/06/23 04:35:20;;;;;;;32.47;28.30;;;20.60;99.90;;;;;;6263774;22;20720;-67
2023/06/23 04:37:57;;;;;;;34.30;29.67;;;20.70;99.90;;;;;;6263776;22;20151;-67
2023/06/23 04:40:41;;;;;;;34.70;29.57;;;20.70;99.90;;;;;;6264770;22;20142;-68
2023/06/23 04:43:12;;;;;;;36.77;32.87;;;20.70;99.90;;;;;;6266402;22;20357;-67
2023/06/23 04:45:50;;;;;;;35.43;31.60;;;20.50;99.90;;;;;;6264525;22;20768;-67
2023/06/23 04:48:21;;;;;;;33.67;30.07;;;20.50;99.90;;;;;;6266724;22;20739;-68
2023/06/23 04:50:49;;;;;;;34.60;30.83;;;20.50;99.90;;;;;;6265925;22;20485;-68
2023/06/23 04:53:21;;;;;;;35.83;30.07;;;20.50;99.90;;;;;;6265594;22;20452;-68
2023/06/23 04:55:52;;;;;;;37.40;31.40;;;20.50;99.90;;;;;;6265610;22;20912;-68
2023/06/23 04:58:20;;;;;;;34.97;31.30;;;20.60;99.90;;;;;;6264712;22;20425;-68
2023/06/23 05:00:47;;;;;;;37.83;32.83;;;20.60;99.90;;;;;;6266319;22;20393;-68
2023/06/23 05:03:15;;;;;;;35.70;31.90;;;20.50;99.90;;;;;;6267150;22;20462;-68
2023/06/23 05:05:42;;;;;;;36.27;32.50;;;20.60;99.90;;;;;;6266737;22;20484;-68
2023/06/23 05:08:10;;;;;;;34.40;30.63;;;20.70;99.90;;;;;;6265350;22;20397;-68
2023/06/23 05:10:37;;;;;;;37.87;33.27;;;20.70;99.90;;;;;;6265998;22;20388;-68
2023/06/23 05:13:04;;;;;;;38.70;31.73;;;20.70;99.90;;;;;;6267116;22;20817;-68
2023/06/23 05:15:29;;;;;;;36.90;31.77;;;20.70;99.90;;;;;;6266997;22;20451;-68
2023/06/23 05:17:57;;;;;;;37.10;32.50;;;20.80;99.90;;;;;;6238808;22;20401;-68
2023/06/23 05:20:25;;;;;;;38.17;32.30;;;20.80;99.90;;;;;;6266837;22;20489;-68
2023/06/23 05:22:55;;;;;;;34.83;31.03;;;20.80;99.90;;;;;;6265160;22;20829;-67
2023/06/23 05:25:23;;;;;;;41.97;33.53;;;20.80;99.90;;;;;;6265865;22;20373;-68
2023/06/23 05:27:57;;;;;;;37.80;33.00;;;20.80;99.90;;;;;;6266849;22;20397;-68
2023/06/23 05:30:24;;;;;;;38.53;32.63;;;20.90;99.90;;;;;;6266197;22;20473;-67
2023/06/23 05:32:52;;;;;;;36.33;32.50;;;20.90;99.90;;;;;;6266035;22;20387;-68
2023/06/23 05:35:25;;;;;;;37.67;33.67;;;20.90;99.90;;;;;;6267021;22;20407;-68
2023/06/23 05:37:52;;;;;;;35.70;31.80;;;20.90;99.90;;;;;;6265993;22;20436;-68
2023/06/23 05:40:18;;;;;;;34.73;31.03;;;20.90;99.90;;;;;;6265792;22;20357;-68
2023/06/23 05:42:44;;;;;;;36.17;32.27;;;20.90;99.90;;;;;;6265412;22;20369;-68
2023/06/23 05:45:11;;;;;;;34.67;30.90;;;20.90;99.90;;;;;;6268702;22;20154;-68
2023/06/23 05:47:55;;;;;;;36.97;31.60;;;20.90;99.90;;;;;;6267360;22;20460;-68
2023/06/23 05:50:25;;;;;;;37.27;32.53;;;21.00;99.90;;;;;;6269342;22;20682;-68
2023/06/23 05:52:59;;;;;;;36.57;31.87;;;21.00;99.90;;;;;;6267581;22;20888;-68
2023/06/23 05:55:28;;;;;;;35.83;32.20;;;21.00;99.90;;;;;;6268776;22;20440;-68
2023/06/23 05:57:59;;;;;;;35.80;31.90;;;21.10;99.90;;;;;;6266535;22;20483;-68
2023/06/23 06:00:30;;;;;;;34.63;30.63;;;21.10;99.90;;;;;;6267566;22;20750;-68
2023/06/23 06:02:58;;;;;;;33.27;29.67;;;21.10;99.90;;;;;;6269280;22;21119;-68
2023/06/23 06:05:26;;;;;;;35.03;31.23;;;21.20;99.90;;;;;;6268161;22;20436;-68
2023/06/23 06:07:54;;;;;;;35.93;31.60;;;21.20;99.90;;;;;;6267863;22;20480;-68
2023/06/23 06:10:22;;;;;;;33.13;29.67;;;21.20;99.90;;;;;;6268531;22;20491;-68
2023/06/23 06:12:50;;;;;;;34.63;30.93;;;21.40;99.90;;;;;;6267348;22;21031;-68
2023/06/23 06:15:17;;;;;;;35.70;29.47;;;21.40;99.90;;;;;;6267603;22;20382;-68
2023/06/23 06:17:43;;;;;;;36.20;29.83;;;21.50;99.90;;;;;;6266754;22;20502;-68
2023/06/23 06:20:11;;;;;;;32.20;28.50;;;21.60;99.90;;;;;;6269123;22;20373;-68
2023/06/23 06:22:39;;;;;;;35.77;30.03;;;21.60;99.90;;;;;;6266840;22;20370;-68
2023/06/23 06:25:08;;;;;;;33.10;29.50;;;21.60;99.90;;;;;;6266426;22;20419;-68
2023/06/23 06:27:34;;;;;;;33.93;30.20;;;21.50;99.90;;;;;;6267757;22;20813;-68
2023/06/23 06:30:02;;;;;;;37.30;30.63;;;21.50;99.90;;;;;;6240703;22;20381;-67
2023/06/23 06:32:32;;;;;;;32.67;29.17;;;21.50;99.90;;;;;;6268250;22;20377;-68
2023/06/23 06:35:04;;;;;;;35.67;30.17;;;21.50;99.90;;;;;;6268584;22;20381;-68
2023/06/23 06:37:35;;;;;;;34.37;29.90;;;21.60;99.90;;;;;;6269123;22;20888;-68
2023/06/23 06:40:05;;;;;;;36.53;30.57;;;21.60;99.90;;;;;;6268031;22;20829;-68
2023/06/23 06:42:31;;;;;;;32.20;27.20;;;21.60;99.90;;;;;;6268562;22;21220;-68
2023/06/23 06:44:57;;;;;;;35.93;28.53;;;21.60;99.90;;;;;;6267281;22;20373;-68
2023/06/23 06:47:24;;;;;;;28.00;25.10;;;21.60;99.90;;;;;;6266823;22;20150;-68
2023/06/23 06:49:50;;;;;;;29.97;26.47;;;21.60;99.90;;;;;;6266752;22;20193;-68
2023/06/23 06:52:18;;;;;;;31.60;28.20;;;21.70;99.90;;;;;;6266372;22;20883;-68
2023/06/23 06:54:44;;;;;;;28.50;25.30;;;21.60;99.90;;;;;;6265414;22;20792;-68
2023/06/23 06:57:10;;;;;;;27.93;22.97;;;21.40;99.90;;;;;;6267076;22;20865;-68
2023/06/23 06:59:36;;;;;;;29.07;23.87;;;21.50;99.90;;;;;;6268118;22;20401;-68
2023/06/23 07:02:05;;;;;;;25.93;23.30;;;21.60;99.90;;;;;;6266052;22;20388;-69
2023/06/23 07:04:31;;;;;;;26.50;21.50;;;21.60;99.90;;;;;;6267807;22;20158;-67
2023/06/23 07:06:56;;;;;;;24.30;21.70;;;21.60;99.90;;;;;;6267547;22;20377;-67
2023/06/23 07:09:22;;;;;;;24.70;22.20;;;21.50;99.90;;;;;;6265508;22;20170;-68
2023/06/23 07:11:51;;;;;;;23.80;20.37;;;21.40;99.90;;;;;;6268426;22;20181;-68
2023/06/23 07:14:17;;;;;;;24.00;21.43;;;21.50;99.90;;;;;;6265836;22;20162;-68
2023/06/23 07:16:42;;;;;;;28.27;19.57;;;21.60;99.90;;;;;;6267425;22;20508;-68
2023/06/23 07:19:08;;;;;;;25.70;21.20;;;21.70;99.90;;;;;;6267693;22;20173;-68
2023/06/23 07:21:33;;;;;;;23.63;21.13;;;21.70;99.90;;;;;;6268024;22;20143;-68
2023/06/23 07:23:59;;;;;;;22.27;18.20;;;21.70;99.90;;;;;;6265842;22;20154;-68
2023/06/23 07:26:24;;;;;;;23.30;19.70;;;21.70;99.90;;;;;;6266772;22;20499;-68
2023/06/23 07:28:50;;;;;;;19.80;17.17;;;21.80;99.90;;;;;;6266835;22;20275;-68
2023/06/23 07:31:15;;;;;;;22.03;19.73;;;21.80;99.90;;;;;;6265771;22;20151;-69
2023/06/23 07:33:41;;;;;;;19.43;16.70;;;21.80;99.90;;;;;;6267992;22;20594;-68
2023/06/23 07:36:07;;;;;;;17.93;16.03;;;21.90;99.90;;;;;;6266206;22;20185;-69
2023/06/23 07:38:33;;;;;;;19.97;16.90;;;22.00;99.90;;;;;;6266581;22;20216;-68
2023/06/23 07:40:58;;;;;;;23.80;17.07;;;22.10;99.90;;;;;;6266319;22;20462;-68
2023/06/23 07:43:24;;;;;;;17.10;15.00;;;22.20;99.90;;;;;;6266706;22;20147;-68
2023/06/23 07:45:50;;;;;;;17.93;16.10;;;22.10;99.90;;;;;;6266728;22;20240;-68
2023/06/23 07:48:15;;;;;;;17.30;15.50;;;22.30;99.90;;;;;;6264854;22;20499;-68
2023/06/23 07:50:43;;;;;;;16.10;14.53;;;22.40;99.90;;;;;;6267611;22;20162;-69
2023/06/23 07:53:09;;;;;;;18.93;15.40;;;22.30;99.90;;;;;;6266708;22;20150;-68
2023/06/23 07:55:34;;;;;;;17.27;15.07;;;22.20;99.90;;;;;;6267284;22;20380;-68
2023/06/23 07:58:00;;;;;;;18.63;16.70;;;22.10;99.90;;;;;;6265854;22;20174;-68
2023/06/23 08:00:26;;;;;;;19.33;17.43;;;22.00;99.90;;;;;;6266628;22;20163;-68
2023/06/23 08:02:52;;;;;;;18.20;14.60;;;22.10;99.90;;;;;;6265992;22;20617;-68
2023/06/23 08:05:17;;;;;;;16.43;14.70;;;22.20;99.90;;;;;;6265050;22;20381;-68
2023/06/23 08:07:44;;;;;;;15.40;13.87;;;22.30;99.90;;;;;;6266030;22;20594;-69
2023/06/23 08:10:10;;;;;;;16.63;14.93;;;22.30;99.90;;;;;;6266751;22;20334;-69
2023/06/23 08:12:37;;;;;;;18.13;15.47;;;22.30;99.90;;;;;;6267703;22;20438;-69
2023/06/23 08:15:04;;;;;;;25.07;15.73;;;22.30;99.90;;;;;;6266818;22;20157;-68
2023/06/23 08:17:29;;;;;;;14.50;13.10;;;22.40;99.90;;;;;;6265564;22;20412;-68
2023/06/23 08:19:55;;;;;;;14.80;13.30;;;22.60;99.90;;;;;;6265777;22;20377;-67
2023/06/23 08:22:20;;;;;;;18.10;12.70;;;22.60;99.90;;;;;;6264983;22;20771;-68
2023/06/23 08:24:46;;;;;;;14.93;13.17;;;22.70;99.90;;;;;;6265889;22;20241;-67
2023/06/23 08:27:11;;;;;;;14.60;13.10;;;22.90;99.90;;;;;;6266034;22;20151;-68
2023/06/23 08:29:38;;;;;;;13.10;11.70;;;23.00;99.90;;;;;;6266258;22;20181;-68
2023/06/23 08:32:05;;;;;;;13.90;12.07;;;23.10;99.90;;;;;;6265397;22;20155;-67
2023/06/23 08:34:30;;;;;;;14.03;12.53;;;23.10;99.90;;;;;;6267411;22;20409;-67
2023/06/23 08:36:56;;;;;;;13.83;12.20;;;23.10;99.90;;;;;;6266255;22;20455;-68
2023/06/23 08:39:21;;;;;;;13.13;11.83;;;23.10;99.90;;;;;;6265920;22;20615;-68
2023/06/23 08:41:49;;;;;;;13.27;11.40;;;23.20;99.90;;;;;;6267543;22;20143;-68
2023/06/23 08:44:15;;;;;;;13.30;12.00;;;23.30;99.90;;;;;;6267085;22;20178;-68
2023/06/23 08:46:43;;;;;;;13.17;11.27;;;23.30;99.90;;;;;;6266812;22;20369;-69
2023/06/23 08:49:14;;;;;;;12.90;11.00;;;23.30;99.90;;;;;;6266196;22;20397;-68
2023/06/23 08:51:40;;;;;;;14.60;12.87;;;23.50;99.90;;;;;;6267453;22;20354;-68
2023/06/23 08:54:06;;;;;;;17.90;13.77;;;23.70;99.90;;;;;;6265463;22;20430;-68
2023/06/23 08:56:32;;;;;;;15.27;13.67;;;23.60;99.90;;;;;;6267887;22;20409;-68
2023/06/23 08:58:58;;;;;;;15.20;13.60;;;23.50;99.90;;;;;;6265382;22;20538;-69
2023/06/23 09:01:23;;;;;;;11.80;10.73;;;23.40;99.90;;;;;;6267179;22;20466;-69
2023/06/23 09:03:50;;;;;;;15.97;11.70;;;23.50;99.90;;;;;;6265626;22;20142;-69
2023/06/23 09:06:15;;;;;;;11.57;10.47;;;23.50;99.90;;;;;;6267085;22;20269;-68
2023/06/23 09:08:41;;;;;;;11.70;10.70;;;23.50;99.90;;;;;;6266624;22;20393;-67
2023/06/23 09:11:07;;;;;;;11.57;10.37;;;23.70;99.90;;;;;;6265630;22;20155;-68
2023/06/23 09:13:36;;;;;;;11.43;9.27;;;23.80;99.90;;;;;;6266603;22;20169;-68
2023/06/23 09:16:02;;;;;;;11.70;10.00;;;23.70;99.90;;;;;;6264945;22;20254;-68
2023/06/23 09:18:38;;;;;;;10.60;9.50;;;23.80;99.90;;;;;;6238409;22;20413;-69
2023/06/23 09:21:05;;;;;;;9.90;8.20;;;23.70;99.90;;;;;;6267793;22;20365;-70
2023/06/23 09:23:31;;;;;;;8.70;7.80;;;23.60;99.90;;;;;;6268209;22;20373;-68
2023/06/23 09:25:57;;;;;;;8.90;8.10;;;23.60;99.90;;;;;;6269068;22;20381;-68
2023/06/23 09:28:24;;;;;;;11.17;10.00;;;23.80;99.90;;;;;;6241981;22;20189;-68
2023/06/23 09:30:51;;;;;;;9.93;9.03;;;23.80;99.90;;;;;;6268151;22;20842;-69
2023/06/23 09:33:18;;;;;;;9.63;8.83;;;23.80;99.90;;;;;;6268249;22;20430;-68
2023/06/23 09:35:49;;;;;;;10.37;9.30;;;23.90;99.90;;;;;;6268696;22;20764;-68
2023/06/23 09:38:18;;;;;;;10.17;9.00;;;24.00;99.90;;;;;;6241208;22;20828;-68
2023/06/23 09:40:43;;;;;;;10.73;9.63;;;24.00;99.90;;;;;;6268854;22;20401;-68
2023/06/23 09:43:09;;;;;;;8.80;7.73;;;23.90;99.90;;;;;;6267990;22;20384;-68
2023/06/23 09:45:35;;;;;;;8.20;7.40;;;23.80;99.90;;;;;;6268050;22;20480;-69
2023/06/23 09:48:00;;;;;;;9.37;7.30;;;23.80;99.90;;;;;;6241309;22;20224;-68
2023/06/23 09:50:27;;;;;;;7.90;7.20;;;23.90;99.90;;;;;;6268502;22;20143;-68
2023/06/23 09:53:05;;;;;;;8.23;7.33;;;24.00;99.90;;;;;;6267718;22;20146;-68
2023/06/23 09:55:31;;;;;;;8.40;7.47;;;24.10;99.90;;;;;;6269588;22;20369;-68
2023/06/23 09:57:58;;;;;;;10.80;8.47;;;24.10;99.90;;;;;;6267401;22;20467;-68
2023/06/23 10:00:31;;;;;;;8.53;7.73;;;24.10;99.90;;;;;;6268414;22;20397;-69
2023/06/23 10:02:59;;;;;;;9.23;7.40;;;24.20;99.90;;;;;;6267983;22;20389;-69
2023/06/23 10:05:25;;;;;;;7.70;6.03;;;24.30;99.90;;;;;;6268124;22;20465;-69
2023/06/23 10:08:08;;;;;;;7.97;7.27;;;24.40;99.90;;;;;;6268206;22;20586;-69
2023/06/23 10:10:43;;;;;;;10.90;8.03;;;24.70;99.90;;;;;;6268627;22;20834;-69
2023/06/23 10:13:09;;;;;;;9.93;8.60;;;24.70;99.90;;;;;;6267847;22;20372;-68
2023/06/23 10:15:36;;;;;;;8.03;7.33;;;24.60;99.90;;;;;;6267742;22;20427;-68
2023/06/23 10:18:02;;;;;;;9.60;8.53;;;24.60;99.90;;;;;;6267898;22;20396;-68
2023/06/23 10:20:29;;;;;;;7.80;7.00;;;24.60;99.90;;;;;;6267628;22;20373;-68
2023/06/23 10:22:56;;;;;;;7.03;6.37;;;24.60;99.90;;;;;;6267167;22;20555;-66
2023/06/23 10:25:24;;;;;;;7.73;6.93;;;24.70;99.90;;;;;;6268932;22;20457;-67
2023/06/23 10:27:51;;;;;;;8.90;8.10;;;24.90;99.90;;;;;;6268438;22;20393;-70
2023/06/23 10:30:18;;;;;;;8.47;7.67;;;25.00;99.90;;;;;;6267752;22;20384;-67
2023/06/23 10:32:54;;;;;;;8.57;7.60;;;25.00;99.90;;;;;;6268913;22;20378;-68
2023/06/23 10:35:22;;;;;;;9.03;8.03;;;24.80;99.90;;;;;;6268862;22;20956;-67
2023/06/23 10:37:49;;;;;;;9.10;8.20;;;24.80;99.90;;;;;;6239834;22;21321;-68
2023/06/23 10:40:19;;;;;;;9.23;8.20;;;24.80;99.90;;;;;;6267651;22;21275;-68
2023/06/23 10:42:48;;;;;;;8.70;7.80;;;24.70;99.90;;;;;;6269169;22;20376;-68
2023/06/23 10:45:13;;;;;;;9.60;8.57;;;24.90;99.90;;;;;;6266454;22;20814;-68
2023/06/23 10:47:40;;;;;;;11.40;9.10;;;24.90;99.90;;;;;;6268784;22;20464;-69
2023/06/23 10:50:07;;;;;;;8.60;7.67;;;25.10;99.90;;;;;;6239073;22;20250;-69
2023/06/23 10:52:34;;;;;;;8.90;7.70;;;24.90;99.90;;;;;;6268866;22;20502;-68
2023/06/23 10:54:59;;;;;;;8.70;7.60;;;24.70;99.90;;;;;;6267240;22;20384;-68
2023/06/23 10:57:25;;;;;;;9.20;8.40;;;24.50;99.90;;;;;;6268218;22;20417;-68
2023/06/23 11:00:06;;;;;;;10.27;9.27;;;24.50;99.90;;;;;;6267212;22;20167;-69
2023/06/23 11:02:53;;;;;;;8.87;7.97;;;24.40;99.90;;;;;;6268549;22;20131;-68
2023/06/23 11:05:19;;;;;;;11.60;7.80;;;24.60;99.90;;;;;;6267829;22;20370;-68
2023/06/23 11:08:03;;;;;;;8.70;7.90;;;24.70;99.90;;;;;;6266185;22;20417;-68
2023/06/23 11:10:48;;;;;;;6.93;6.33;;;24.80;99.90;;;;;;6266476;22;20654;-68
2023/06/23 11:13:14;;;;;;;6.03;5.53;;;25.00;99.90;;;;;;6267263;22;20373;-67
2023/06/23 11:15:47;;;;;;;8.20;7.50;;;25.30;99.90;;;;;;6268917;22;20412;-68
2023/06/23 11:18:14;;;;;;;7.80;7.10;;;25.40;99.90;;;;;;6266814;22;20393;-67
2023/06/23 11:20:43;;;;;;;7.60;6.80;;;25.70;99.90;;;;;;6267779;22;20373;-68
2023/06/23 11:23:11;;;;;;;6.60;6.00;;;25.80;99.90;;;;;;6266204;22;20392;-67
2023/06/23 11:25:42;;;;;;;5.77;5.27;;;25.80;99.90;;;;;;6268145;22;20824;-68
2023/06/23 11:28:24;;;;;;;7.53;6.73;;;25.80;99.90;;;;;;6266304;22;20385;-68
2023/06/23 11:31:15;;;;;;;8.03;6.77;;;25.90;99.90;;;;;;6268143;22;20456;-68
2023/06/23 11:33:45;;;;;;;7.13;6.50;;;26.00;99.90;;;;;;6267995;22;20832;-68
2023/06/23 11:36:19;;;;;;;6.80;6.20;;;26.00;99.90;;;;;;6265744;22;20788;-68
2023/06/23 11:38:45;;;;;;;7.00;5.50;;;26.10;99.90;;;;;;6266466;22;20393;-68
2023/06/23 11:41:14;;;;;;;7.23;5.27;;;26.30;98.40;;;;;;6238629;22;20390;-68
2023/06/23 11:43:41;;;;;;;5.43;4.93;;;26.10;96.00;;;;;;6266998;22;21172;-68
2023/06/23 11:46:11;;;;;;;5.20;4.67;;;26.20;96.50;;;;;;6267456;22;20377;-68
2023/06/23 11:48:37;;;;;;;5.03;4.23;;;26.20;95.20;;;;;;6267768;22;20424;-68
2023/06/23 11:51:06;;;;;;;5.77;5.17;;;26.30;94.30;;;;;;6267433;22;20373;-68
2023/06/23 11:53:32;;;;;;;4.87;4.47;;;26.40;94.60;;;;;;6266997;22;20158;-68
2023/06/23 11:55:59;;;;;;;5.07;4.60;;;26.50;94.70;;;;;;6268099;22;20413;-68
2023/06/23 11:58:31;;;;;;;5.30;4.80;;;26.60;93.00;;;;;;6239646;22;20790;-68
2023/06/23 12:00:57;;;;;;;5.80;5.30;;;26.70;93.50;;;;;;6266863;22;20817;-68
2023/06/23 12:03:23;;;;;;;5.73;5.13;;;26.60;93.40;;;;;;6267344;22;20808;-68
2023/06/23 12:05:49;;;;;;;5.20;4.70;;;26.40;92.80;;;;;;6267971;22;20377;-68
2023/06/23 12:08:15;;;;;;;5.13;4.73;;;26.90;92.30;;;;;;6265669;22;20389;-68
2023/06/23 12:10:41;;;;;;;4.50;4.10;;;28.30;90.30;;;;;;6268005;22;20157;-68
2023/06/23 12:13:11;;;;;;;4.60;4.10;;;29.50;84.50;;;;;;6265953;22;20369;-68
2023/06/23 12:15:37;;;;;;;4.93;4.47;;;30.80;82.40;;;;;;6267702;22;20381;-68
2023/06/23 12:18:03;;;;;;;4.70;4.30;;;31.50;73.30;;;;;;6265276;22;20664;-69
2023/06/23 12:20:29;;;;;;;4.53;4.13;;;32.20;68.60;;;;;;6266471;22;20365;-69
2023/06/23 12:22:54;;;;;;;4.57;4.17;;;32.60;65.30;;;;;;6266854;22;20507;-68
2023/06/23 12:25:20;;;;;;;4.73;4.00;;;32.10;61.50;;;;;;6266400;22;20150;-69
2023/06/23 12:27:55;;;;;;;4.70;4.30;;;31.90;63.70;;;;;;6267071;22;20630;-68
2023/06/23 12:30:21;;;;;;;5.70;5.00;;;32.40;63.20;;;;;;6266089;22;20158;-68
2023/06/23 12:32:47;;;;;;;6.00;4.77;;;32.00;60.50;;;;;;6267333;22;20352;-68
2023/06/23 12:35:16;;;;;;;4.87;4.47;;;31.30;61.90;;;;;;6266713;22;20369;-68
2023/06/23 12:37:47;;;;;;;4.97;4.57;;;31.30;63.60;;;;;;6266111;22;20626;-67
2023/06/23 12:40:30;;;;;;;4.97;4.50;;;31.50;62.00;;;;;;6266948;22;21106;-69
2023/06/23 12:42:58;;;;;;;4.97;4.57;;;31.40;60.30;;;;;;6266909;22;20385;-69